Time;durP1;ratioP1;P1;durP2;ratioP2;P2;SDS_P1;SDS_P2;PMS_P1;PMS_P2;Temp;Humidity;BMP_temperature;BMP_pressure;BME280_temperature;BME280_humidity;BME280_pressure;Samples;Min_cycle;Max_cycle;Signal;HPM_P1;HPM_P2
2022/08/22 00:02:33;;;;;;;;;6.00;5.00;;;;;21.64;52.25;100749.56;5011092;28;45988;-80
2022/08/22 00:05:22;;;;;;;;;6.75;4.00;;;;;21.65;52.23;100751.19;5010427;28;46748;-79
2022/08/22 00:08:13;;;;;;;;;2.75;2.75;;;;;21.63;52.19;100753.22;5010636;28;46124;-80
2022/08/22 00:10:47;;;;;;;;;4.00;4.00;;;;;21.60;52.23;100748.22;4994444;28;46001;-80
2022/08/22 00:13:24;;;;;;;;;3.50;3.25;;;;;21.62;52.70;100748.06;5010875;28;45826;-79
2022/08/22 00:16:02;;;;;;;;;6.00;5.25;;;;;21.63;52.23;100747.06;5010476;28;46576;-78
2022/08/22 00:18:49;;;;;;;;;2.75;2.50;;;;;21.63;52.25;100731.88;5010496;28;45901;-79
2022/08/22 00:21:15;;;;;;;;;5.75;5.50;;;;;21.67;52.11;100733.19;4994392;28;45841;-76
2022/08/22 00:23:51;;;;;;;;;4.25;4.00;;;;;21.66;51.87;100728.84;5011353;28;45759;-79
2022/08/22 00:26:54;;;;;;;;;4.00;4.00;;;;;21.68;51.84;100720.69;5010593;28;45781;-79
2022/08/22 00:29:33;;;;;;;;;5.00;4.00;;;;;21.69;51.99;100719.69;5010354;28;46553;-79
2022/08/22 00:32:13;;;;;;;;;4.75;3.75;;;;;21.68;51.73;100723.34;5010091;28;46111;-77
2022/08/22 00:34:57;;;;;;;;;3.00;2.75;;;;;21.64;51.55;100714.06;5010300;28;46993;-79
2022/08/22 00:37:46;;;;;;;;;3.50;2.25;;;;;21.62;51.43;100716.88;5009284;28;46788;-78
2022/08/22 00:40:49;;;;;;;;;5.00;4.00;;;;;21.61;51.96;100715.22;5071841;28;45691;-78
2022/08/22 00:43:20;;;;;;;;;2.75;2.00;;;;;21.62;51.93;100716.88;5060679;28;45609;-78
2022/08/22 00:45:59;;;;;;;;;6.00;4.00;;;;;21.64;51.51;100725.56;5072924;28;45807;-78
2022/08/22 00:48:51;;;;;;;;;4.50;4.00;;;;;21.62;51.66;100729.41;5070596;27;46391;-77
2022/08/22 00:51:49;;;;;;;;;4.00;3.25;;;;;21.61;51.87;100730.41;5075301;27;46706;-78
2022/08/22 00:54:33;;;;;;;;;6.00;3.75;;;;;21.60;51.86;100729.56;5060145;28;45887;-77
2022/08/22 00:57:23;;;;;;;;;6.25;3.75;;;;;21.58;51.55;100733.44;5071561;28;46879;-78
2022/08/22 01:00:15;;;;;;;;;3.75;3.75;;;;;21.57;51.75;100726.44;5072237;28;45829;-77
2022/08/22 01:02:56;;;;;;;;;3.25;3.00;;;;;21.52;51.33;100723.47;5059896;28;46094;-78
2022/08/22 01:06:00;;;;;;;;;3.75;3.75;;;;;21.47;51.46;100728.50;5052072;28;45789;-79
2022/08/22 01:08:51;;;;;;;;;3.75;3.50;;;;;21.38;51.85;100738.38;5050856;28;45723;-80
2022/08/22 01:11:54;;;;;;;;;3.00;3.00;;;;;21.34;51.39;100743.22;5054672;28;47848;-78
2022/08/22 01:14:19;;;;;;;;;3.00;3.00;;;;;21.26;51.47;100737.97;5072016;28;46058;-78
2022/08/22 01:17:04;;;;;;;;;4.50;3.50;;;;;21.20;51.64;100733.31;5072240;28;45744;-76
2022/08/22 01:19:48;;;;;;;;;5.75;4.00;;;;;21.17;51.59;100735.47;5071965;28;45676;-79
2022/08/22 01:22:31;;;;;;;;;4.50;2.25;;;;;21.16;51.22;100726.66;5055197;28;47998;-79
2022/08/22 01:25:18;;;;;;;;;4.00;3.00;;;;;21.14;51.14;100728.69;5068579;28;45692;-79
2022/08/22 01:28:22;;;;;;;;;3.75;3.75;;;;;21.15;51.44;100729.53;5072393;28;45983;-80
2022/08/22 01:31:12;;;;;;;;;3.00;3.00;;;;;21.14;50.97;100727.81;5009304;28;46879;-79
2022/08/22 01:33:40;;;;;;;;;2.00;2.00;;;;;21.06;51.08;100715.34;5014235;28;47574;-79
2022/08/22 01:36:47;;;;;;;;;2.75;2.50;;;;;21.01;50.98;100722.22;5009792;28;46270;-77
2022/08/22 01:39:29;;;;;;;;;4.00;3.25;;;;;20.96;51.12;100709.41;4969944;28;45883;-77
2022/08/22 01:41:55;;;;;;;;;2.50;2.50;;;;;20.99;51.10;100714.41;4970716;28;45698;-79
2022/08/22 01:44:52;;;;;;;;;2.00;1.50;;;;;20.99;50.96;100718.91;4974818;28;45975;-74
2022/08/22 01:47:52;;;;;;;;;2.00;2.00;;;;;20.95;51.15;100708.59;4984001;28;45744;-76
2022/08/22 01:50:24;;;;;;;;;4.25;4.00;;;;;20.93;51.19;100696.47;4931734;28;45815;-77
2022/08/22 01:53:04;;;;;;;;;3.50;3.50;;;;;20.93;50.92;100705.28;4931566;28;45778;-77
2022/08/22 01:55:57;;;;;;;;;2.50;2.00;;;;;20.92;51.28;100708.13;4931489;28;46115;-77
2022/08/22 01:58:27;;;;;;;;;2.50;1.75;;;;;20.93;51.02;100699.13;4916383;28;46058;-78
2022/08/22 02:01:11;;;;;;;;;2.00;2.00;;;;;20.89;51.02;100708.47;4914984;28;45861;-78
2022/08/22 02:03:52;;;;;;;;;2.25;2.25;;;;;20.85;50.86;100723.13;4914423;28;45863;-77
2022/08/22 02:06:31;;;;;;;;;3.00;2.75;;;;;20.77;51.14;100713.34;4930875;28;46783;-78
2022/08/22 02:09:19;;;;;;;;;4.25;4.00;;;;;20.74;50.83;100716.34;4914207;28;48067;-78
2022/08/22 02:11:54;;;;;;;;;3.50;2.75;;;;;20.70;50.84;100720.34;4933928;28;45789;-78
2022/08/22 02:14:32;;;;;;;;;4.00;3.00;;;;;20.65;51.21;100714.72;4934962;28;45873;-78
2022/08/22 02:17:21;;;;;;;;;2.00;2.00;;;;;20.66;51.00;100716.38;4988636;28;46850;-78
2022/08/22 02:20:00;;;;;;;;;3.75;3.00;;;;;20.61;50.76;100705.41;4985062;28;46312;-79
2022/08/22 02:22:31;;;;;;;;;3.75;2.00;;;;;20.62;51.07;100716.91;4993184;28;45823;-78
2022/08/22 02:25:10;;;;;;;;;3.00;3.00;;;;;20.61;50.69;100713.41;4993693;28;45755;-78
2022/08/22 02:28:05;;;;;;;;;2.75;2.50;;;;;20.65;50.90;100717.38;5042043;28;46926;-79
2022/08/22 02:30:53;;;;;;;;;2.00;2.00;;;;;20.67;50.93;100711.88;5046384;28;45900;-79
2022/08/22 02:33:44;;;;;;;;;2.25;2.00;;;;;20.65;50.99;100708.56;5053056;28;46065;-78
2022/08/22 02:36:39;;;;;;;;;3.00;2.00;;;;;20.63;50.73;100715.88;5039345;28;45981;-79
2022/08/22 02:39:52;;;;;;;;;2.00;2.00;;;;;20.54;51.12;100717.72;5053174;28;48921;-76
2022/08/22 02:42:20;;;;;;;;;4.50;1.50;;;;;20.49;51.22;100712.09;5025141;27;45803;-78
2022/08/22 02:45:16;;;;;;;;;2.50;2.50;;;;;20.45;51.48;100721.44;5018610;28;45895;-77
2022/08/22 02:47:55;;;;;;;;;2.75;1.50;;;;;20.42;51.33;100714.59;5024015;28;46427;-78
2022/08/22 02:50:36;;;;;;;;;3.00;3.00;;;;;20.44;51.65;100711.78;5019529;28;46622;-75
2022/08/22 02:53:12;;;;;;;;;3.50;3.00;;;;;20.42;51.58;100714.59;4995442;28;47904;-78
2022/08/22 02:55:43;;;;;;;;;2.50;2.25;;;;;20.43;51.70;100707.44;5014564;28;45746;-77
2022/08/22 02:58:23;;;;;;;;;4.50;2.25;;;;;20.43;51.37;100710.09;5023254;28;45705;-77
2022/08/22 03:01:14;;;;;;;;;3.00;3.00;;;;;20.41;51.90;100712.09;5028609;28;45899;-77
2022/08/22 03:03:42;;;;;;;;;4.25;3.25;;;;;20.42;52.05;100711.94;5012333;28;46999;-79
2022/08/22 03:06:31;;;;;;;;;3.50;3.00;;;;;20.39;52.22;100714.94;5037669;28;45738;-78
2022/08/22 03:09:26;;;;;;;;;3.00;2.75;;;;;20.37;52.20;100705.47;5024826;28;45674;-75
2022/08/22 03:12:08;;;;;;;;;2.25;2.00;;;;;20.32;52.44;100707.81;4959473;28;46721;-77
2022/08/22 03:14:46;;;;;;;;;3.50;3.00;;;;;20.29;52.60;100705.47;4959420;28;47106;-78
2022/08/22 03:17:25;;;;;;;;;3.25;3.00;;;;;20.30;52.74;100704.44;4959343;28;45988;-78
2022/08/22 03:20:06;;;;;;;;;3.00;3.00;;;;;20.30;52.86;100707.94;4955532;28;45637;-75
2022/08/22 03:22:52;;;;;;;;;3.25;1.50;;;;;20.30;52.88;100712.41;4959143;28;47796;-76
2022/08/22 03:25:33;;;;;;;;;3.00;3.00;;;;;20.28;52.96;100714.44;4959360;28;46328;-77
2022/08/22 03:28:08;;;;;;;;;3.75;3.50;;;;;20.31;53.09;100714.94;4959614;28;46251;-76
2022/08/22 03:30:42;;;;;;;;;3.00;3.00;;;;;20.34;53.04;100709.31;4959236;28;46234;-76
2022/08/22 03:33:26;;;;;;;;;3.75;1.75;;;;;20.37;53.21;100700.97;4940866;28;47492;-79
2022/08/22 03:35:58;;;;;;;;;2.50;1.75;;;;;20.36;53.28;100701.13;4957373;28;46018;-79
2022/08/22 03:38:41;;;;;;;;;3.00;3.00;;;;;20.35;53.09;100694.97;4950186;28;45711;-79
2022/08/22 03:41:44;;;;;;;;;3.00;3.00;;;;;20.35;53.20;100702.97;4954013;28;46037;-77
2022/08/22 03:44:10;;;;;;;;;5.00;3.75;;;;;20.34;53.40;100708.47;4917386;28;46065;-78
2022/08/22 03:47:00;;;;;;;;;3.25;3.00;;;;;20.31;53.64;100699.00;4912882;28;48241;-79
2022/08/22 03:49:28;;;;;;;;;3.00;3.00;;;;;20.29;53.64;100692.16;4966424;28;45837;-75
2022/08/22 03:52:02;;;;;;;;;3.00;3.00;;;;;20.28;53.54;100691.31;4981482;28;45963;-78
2022/08/22 03:54:37;;;;;;;;;5.50;4.25;;;;;20.28;53.75;100693.97;4984573;28;46526;-77
2022/08/22 03:57:20;;;;;;;;;5.00;4.00;;;;;20.26;53.74;100685.31;4998080;28;46140;-74
2022/08/22 04:00:04;;;;;;;;;6.00;5.00;;;;;20.25;53.99;100701.47;4995108;28;45726;-78
2022/08/22 04:02:37;;;;;;;;;3.75;3.75;;;;;20.20;53.96;100690.50;4997772;28;46039;-77
2022/08/22 04:05:39;;;;;;;;;3.25;3.25;;;;;20.12;54.30;100667.41;4998396;28;45721;-76
2022/08/22 04:08:35;;;;;;;;;3.25;3.25;;;;;20.16;54.11;100681.19;4978512;28;47320;-76
2022/08/22 04:11:31;;;;;;;;;3.50;3.25;;;;;20.16;54.10;100674.03;4987573;28;45772;-75
2022/08/22 04:14:53;;;;;;;;;4.50;4.00;;;;;20.15;53.96;100669.72;4994258;28;46041;-74
2022/08/22 04:17:55;;;;;;;;;5.50;4.75;;;;;20.13;53.98;100674.41;4914259;28;47794;-77
2022/08/22 04:20:39;;;;;;;;;4.50;4.00;;;;;20.11;54.46;100677.22;4961443;28;46292;-76
2022/08/22 04:23:25;;;;;;;;;4.50;4.00;;;;;20.06;54.57;100687.53;4970280;28;45735;-75
2022/08/22 04:26:23;;;;;;;;;5.75;4.50;;;;;20.03;54.05;100685.19;4971928;28;46201;-75
2022/08/22 04:28:55;;;;;;;;;5.75;3.50;;;;;19.98;54.65;100676.06;4912824;28;47117;-78
2022/08/22 04:31:31;;;;;;;;;4.25;4.00;;;;;19.95;54.31;100674.59;4901024;28;47320;-78
2022/08/22 04:34:17;;;;;;;;;4.25;4.25;;;;;19.93;54.52;100679.22;4913834;28;45701;-75
2022/08/22 04:36:48;;;;;;;;;5.00;4.00;;;;;19.89;54.29;100671.75;4885908;28;45836;-78
2022/08/22 04:39:26;;;;;;;;;3.50;2.50;;;;;19.88;54.86;100676.25;4912818;28;45839;-78
2022/08/22 04:42:18;;;;;;;;;4.50;3.50;;;;;19.86;54.76;100672.94;4913253;28;46109;-75
2022/08/22 04:45:00;;;;;;;;;7.00;5.00;;;;;19.85;54.68;100670.44;4913174;28;45894;-75
2022/08/22 04:47:41;;;;;;;;;5.50;4.75;;;;;19.85;54.81;100676.59;4913196;28;45596;-78
2022/08/22 04:50:15;;;;;;;;;4.50;3.00;;;;;19.86;54.51;100678.25;4913141;28;47866;-79
2022/08/22 04:52:47;;;;;;;;;3.00;3.00;;;;;19.89;54.53;100679.72;4906553;28;48431;-78
2022/08/22 04:55:31;;;;;;;;;4.00;4.00;;;;;19.88;54.54;100697.50;4965651;28;45777;-77
2022/08/22 04:58:38;;;;;;;;;4.50;4.00;;;;;19.85;54.75;100697.84;4962925;28;45852;-75
2022/08/22 05:01:06;;;;;;;;;3.25;3.25;;;;;19.85;54.53;100712.97;4917171;28;47649;-75
2022/08/22 05:03:37;;;;;;;;;3.75;3.00;;;;;19.83;54.82;100702.50;4931607;28;45856;-76
2022/08/22 05:06:05;;;;;;;;;5.00;4.75;;;;;19.84;55.07;100695.34;4952317;28;45577;-78
2022/08/22 05:08:34;;;;;;;;;3.00;3.00;;;;;19.81;55.12;100695.72;4973918;28;45899;-78
2022/08/22 05:11:04;;;;;;;;;3.75;2.00;;;;;19.85;54.80;100715.63;4990696;28;47581;-77
2022/08/22 05:13:38;;;;;;;;;3.00;3.00;;;;;19.85;54.90;100723.63;4992282;28;45860;-75
2022/08/22 05:16:13;;;;;;;;;5.75;4.00;;;;;19.84;54.97;100720.13;4973484;28;46119;-78
2022/08/22 05:19:03;;;;;;;;;5.00;4.00;;;;;19.86;54.74;100722.63;4989891;28;45769;-79
2022/08/22 05:21:33;;;;;;;;;5.25;4.50;;;;;19.83;54.91;100701.66;4989084;28;46910;-75
2022/08/22 05:24:06;;;;;;;;;6.50;4.00;;;;;19.87;54.81;100705.66;4989715;28;46072;-79
2022/08/22 05:26:39;;;;;;;;;6.00;5.00;;;;;19.89;54.84;100715.13;4989990;28;45919;-76
2022/08/22 05:29:08;;;;;;;;;4.25;4.00;;;;;19.90;54.88;100716.81;4990023;28;45711;-76
2022/08/22 05:31:59;;;;;;;;;4.50;3.75;;;;;19.90;55.20;100713.31;4989833;28;45832;-76
2022/08/22 05:34:30;;;;;;;;;6.25;3.25;;;;;19.90;55.02;100714.16;4979891;28;45762;-77
2022/08/22 05:37:09;;;;;;;;;6.00;3.75;;;;;19.93;54.94;100726.25;4995664;28;45871;-77
2022/08/22 05:39:40;;;;;;;;;5.75;5.00;;;;;19.94;55.08;100734.09;5052067;28;45688;-75
2022/08/22 05:42:12;;;;;;;;;4.75;4.00;;;;;19.96;54.82;100731.25;5050754;28;47426;-77
2022/08/22 05:44:38;;;;;;;;;4.75;4.00;;;;;19.98;54.71;100732.75;5052057;28;45994;-75
2022/08/22 05:47:21;;;;;;;;;6.75;6.00;;;;;20.03;55.06;100737.56;5051275;28;46032;-77
2022/08/22 05:50:22;;;;;;;;;3.00;3.00;;;;;20.05;54.79;100747.06;5055794;28;45842;-78
2022/08/22 05:53:06;;;;;;;;;3.50;3.50;;;;;20.09;54.81;100739.56;4989167;28;45751;-75
2022/08/22 05:55:56;;;;;;;;;4.00;4.00;;;;;20.12;54.70;100728.59;4991152;28;46201;-76
2022/08/22 05:58:48;;;;;;;;;5.00;5.00;;;;;20.17;54.79;100733.41;4980123;28;45789;-75
2022/08/22 06:01:26;;;;;;;;;6.00;5.50;;;;;20.19;54.73;100744.72;4959165;28;46063;-75
2022/08/22 06:04:07;;;;;;;;;4.00;4.00;;;;;20.22;54.67;100752.38;4952886;28;46480;-76
2022/08/22 06:06:51;;;;;;;;;4.25;3.75;;;;;20.27;54.57;100747.38;4953994;28;46058;-75
2022/08/22 06:09:20;;;;;;;;;5.25;5.00;;;;;20.30;54.52;100749.69;4953935;28;45925;-74
2022/08/22 06:12:20;;;;;;;;;5.00;5.00;;;;;20.34;54.33;100754.56;4961884;28;45773;-76
2022/08/22 06:15:19;;;;;;;;;6.00;4.50;;;;;20.38;54.23;100750.53;4882484;29;45883;-75
2022/08/22 06:18:13;;;;;;;;;5.25;3.75;;;;;20.43;54.14;100748.22;4876884;29;45746;-76
2022/08/22 06:20:54;;;;;;;;;3.50;3.00;;;;;20.48;54.24;100739.72;4851105;29;46339;-80
2022/08/22 06:23:23;;;;;;;;;5.00;5.00;;;;;20.52;54.29;100730.38;4880706;29;45988;-80
2022/08/22 06:25:52;;;;;;;;;4.75;4.25;;;;;20.55;54.24;100732.72;4870247;29;48923;-79
2022/08/22 06:28:25;;;;;;;;;4.25;4.00;;;;;20.60;54.24;100734.84;4874798;29;47676;-80
2022/08/22 06:30:54;;;;;;;;;3.25;3.25;;;;;20.69;53.91;100749.81;4911767;28;46283;-80
2022/08/22 06:33:32;;;;;;;;;5.50;5.00;;;;;20.74;54.05;100742.97;4895411;29;45766;-78
2022/08/22 06:39:05;;;;;;;;;6.25;4.00;;;;;20.81;53.51;100749.28;4953633;28;45688;-80
2022/08/22 06:41:35;;;;;;;;;6.75;5.00;;;;;20.83;53.63;100752.59;4960243;28;45805;-78
2022/08/22 06:44:02;;;;;;;;;5.00;4.50;;;;;20.84;53.52;100743.59;4972974;28;45918;-79
2022/08/22 06:46:32;;;;;;;;;4.25;4.00;;;;;20.89;53.19;100745.75;4971695;28;48681;-79
2022/08/22 06:49:00;;;;;;;;;4.25;3.50;;;;;20.90;53.30;100742.06;4973410;28;47029;-78
2022/08/22 06:51:28;;;;;;;;;4.50;4.00;;;;;20.95;53.28;100743.22;5050860;28;45698;-79
2022/08/22 06:53:59;;;;;;;;;7.00;4.25;;;;;21.03;52.90;100746.84;5054597;28;45721;-78
2022/08/22 06:56:32;;;;;;;;;5.50;4.50;;;;;21.08;53.22;100737.34;5054623;28;45745;-80
2022/08/22 06:59:05;;;;;;;;;5.75;4.25;;;;;21.19;52.97;100736.16;5052597;28;46980;-78
2022/08/22 07:01:34;;;;;;;;;3.75;3.75;;;;;21.25;52.89;100746.13;5055137;28;45728;-79
2022/08/22 07:04:07;;;;;;;;;3.50;3.50;;;;;21.32;52.83;100739.09;5053666;28;45677;-79
2022/08/22 07:06:41;;;;;;;;;5.00;3.75;;;;;21.38;52.54;100748.22;5054369;28;45942;-80
2022/08/22 07:09:18;;;;;;;;;14.00;13.50;;;;;21.45;52.75;100752.66;5053945;28;45990;-80
2022/08/22 07:11:44;;;;;;;;;3.25;3.25;;;;;21.48;52.36;100757.66;5054531;28;45670;-79
2022/08/22 07:14:14;;;;;;;;;4.75;4.75;;;;;21.52;52.59;100769.63;5052879;28;45749;-81
2022/08/22 07:16:43;;;;;;;;;5.25;4.50;;;;;21.55;52.13;100769.25;5071402;28;46746;-76
2022/08/22 07:19:21;;;;;;;;;5.00;4.50;;;;;21.54;52.21;100772.94;5071054;28;46121;-79
2022/08/22 07:21:47;;;;;;;;;6.75;6.00;;;;;21.55;52.24;100776.44;5072053;28;45676;-80
2022/08/22 07:24:16;;;;;;;;;5.75;5.75;;;;;21.54;52.35;100778.25;5074703;28;45784;-79
2022/08/22 07:26:48;;;;;;;;;5.00;5.00;;;;;21.55;51.93;100781.75;5074492;28;47387;-78
2022/08/22 07:29:58;;;;;;;;;8.25;5.00;;;;;21.56;51.99;100788.75;5074852;28;46664;-79
2022/08/22 07:32:33;;;;;;;;;4.75;4.50;;;;;21.53;52.37;100781.13;5023075;28;45801;-79
2022/08/22 07:35:14;;;;;;;;;6.00;5.00;;;;;21.55;51.73;100784.44;5038221;28;46389;-78
2022/08/22 07:37:45;;;;;;;;;3.00;3.00;;;;;21.57;52.13;100772.59;5035149;28;46479;-79
2022/08/22 07:40:30;;;;;;;;;6.00;5.00;;;;;21.59;52.21;100775.91;5031961;28;46022;-79
2022/08/22 07:43:11;;;;;;;;;3.75;3.75;;;;;21.65;51.79;100780.53;5014248;28;45880;-80
2022/08/22 07:45:48;;;;;;;;;7.50;4.00;;;;;21.71;52.26;100774.50;5031696;28;45659;-79
2022/08/22 07:48:33;;;;;;;;;8.50;4.00;;;;;21.77;52.01;100781.78;5031574;28;46407;-78
2022/08/22 07:51:08;;;;;;;;;27.25;24.00;;;;;21.78;51.53;100782.63;5031015;28;46626;-79
2022/08/22 07:53:57;;;;;;;;;5.00;4.00;;;;;21.85;51.52;100785.41;5030639;28;45830;-77
2022/08/22 07:56:31;;;;;;;;;5.00;4.00;;;;;21.83;51.32;100777.59;5031512;28;45715;-78
2022/08/22 07:59:06;;;;;;;;;4.75;4.75;;;;;21.87;51.66;100796.72;5030668;28;46496;-78
2022/08/22 08:01:32;;;;;;;;;4.75;4.25;;;;;21.81;51.27;100784.91;5014200;28;46636;-78
2022/08/22 08:04:02;;;;;;;;;5.00;4.25;;;;;21.76;51.64;100782.78;5030418;28;45763;-79
2022/08/22 08:06:28;;;;;;;;;5.75;4.25;;;;;21.75;51.68;100783.78;5053995;28;45890;-79
2022/08/22 08:08:55;;;;;;;;;5.00;4.25;;;;;21.75;51.71;100783.78;5073040;28;46630;-81
2022/08/22 08:11:26;;;;;;;;;5.00;4.00;;;;;21.72;51.64;100788.66;5073386;28;45712;-78
2022/08/22 08:13:59;;;;;;;;;7.00;5.00;;;;;21.74;51.55;100784.00;5073144;28;45468;-80
2022/08/22 08:16:30;;;;;;;;;6.00;5.00;;;;;21.77;51.60;100788.97;5073346;28;45537;-81
2022/08/22 08:18:58;;;;;;;;;4.75;4.50;;;;;21.81;51.87;100797.47;5073237;28;46783;-79
2022/08/22 08:21:24;;;;;;;;;4.00;4.00;;;;;21.81;51.61;100800.13;5073338;28;46318;-79
2022/08/22 08:23:50;;;;;;;;;4.75;4.00;;;;;21.80;51.50;100796.63;5073112;28;45998;-80
2022/08/22 08:26:34;;;;;;;;;5.25;4.25;;;;;21.83;51.45;100796.25;5073444;28;45770;-77
2022/08/22 08:29:01;;;;;;;;;5.75;4.75;;;;;21.89;51.39;100805.38;5045693;28;48640;-80
2022/08/22 08:31:36;;;;;;;;;5.25;5.00;;;;;21.98;51.56;100807.00;5073228;28;46801;-81
2022/08/22 08:34:08;;;;;;;;;6.00;5.50;;;;;22.05;51.14;100803.47;5073144;28;45632;-77
2022/08/22 08:36:46;;;;;;;;;5.50;4.75;;;;;22.13;51.00;100798.06;5059864;28;45751;-79
2022/08/22 08:39:21;;;;;;;;;4.50;3.75;;;;;22.23;51.42;100797.81;5055018;28;46947;-78
2022/08/22 08:42:15;;;;;;;;;4.75;4.00;;;;;22.29;51.33;100788.28;5072846;28;46303;-75
2022/08/22 08:45:32;;;;;;;;;4.25;2.50;;;;;22.34;51.11;100788.56;5072098;28;45656;-78
2022/08/22 08:48:27;;;;;;;;;3.75;3.25;;;;;22.34;50.60;100776.03;5036625;27;46151;-79
2022/08/22 08:51:08;;;;;;;;;5.25;4.00;;;;;22.35;50.99;100775.00;5072809;28;46694;-77
2022/08/22 08:53:55;;;;;;;;;5.75;4.75;;;;;22.36;50.61;100776.66;5072510;28;45874;-78
2022/08/22 08:56:38;;;;;;;;;5.00;5.00;;;;;22.36;50.53;100768.66;5061877;28;45577;-78
2022/08/22 08:59:22;;;;;;;;;5.25;4.50;;;;;22.40;50.41;100756.59;5073131;28;46031;-79
2022/08/22 09:02:15;;;;;;;;;5.00;5.00;;;;;22.43;50.84;100763.44;5064235;28;45940;-80
2022/08/22 09:05:18;;;;;;;;;3.25;3.00;;;;;22.49;50.82;100752.84;5063698;28;46807;-79
2022/08/22 09:08:22;;;;;;;;;4.00;2.75;;;;;22.55;50.26;100757.47;5061951;28;45791;-78
2022/08/22 09:11:08;;;;;;;;;4.75;4.00;;;;;22.60;50.60;100744.38;5060267;28;45633;-78
2022/08/22 09:13:53;;;;;;;;;4.00;3.50;;;;;22.64;50.13;100750.19;5070965;28;47513;-79
2022/08/22 09:16:41;;;;;;;;;6.00;3.50;;;;;22.69;50.09;100752.31;5072736;28;46118;-81
2022/08/22 09:19:42;;;;;;;;;4.75;3.75;;;;;22.74;49.41;100749.94;5063596;28;45692;-79
2022/08/22 09:22:25;;;;;;;;;3.00;2.75;;;;;22.76;49.20;100754.09;5048602;28;45633;-80
2022/08/22 09:25:24;;;;;;;;;4.75;3.00;;;;;22.79;49.19;100744.88;5072689;28;45712;-81
2022/08/22 09:27:59;;;;;;;;;3.00;2.25;;;;;22.81;49.68;100743.69;5053560;28;47730;-79
2022/08/22 09:30:47;;;;;;;;;2.25;2.25;;;;;22.83;49.49;100732.81;5072546;28;45716;-79
2022/08/22 09:33:19;;;;;;;;;3.50;2.75;;;;;22.89;49.48;100732.03;5037246;28;47335;-77
2022/08/22 09:35:57;;;;;;;;;2.00;2.00;;;;;22.96;49.25;100738.31;5050049;28;47923;-78
2022/08/22 09:38:58;;;;;;;;;3.00;3.00;;;;;23.02;49.28;100737.56;5041131;28;47228;-80
2022/08/22 09:41:32;;;;;;;;;5.50;4.00;;;;;23.10;49.16;100740.16;5071914;28;45742;-81
2022/08/22 09:44:14;;;;;;;;;4.00;4.00;;;;;23.13;49.17;100737.09;5070863;28;46019;-79
2022/08/22 09:46:48;;;;;;;;;3.00;2.50;;;;;23.20;48.74;100734.50;5072591;27;46410;-78
2022/08/22 09:49:23;;;;;;;;;3.00;2.00;;;;;23.26;48.92;100725.75;5074314;27;46020;-79
2022/08/22 09:52:40;;;;;;;;;3.25;3.25;;;;;23.28;48.38;100721.00;5053031;28;45697;-78
2022/08/22 09:55:21;;;;;;;;;2.00;2.00;;;;;23.33;48.47;100723.94;5022161;28;46063;-79
2022/08/22 09:58:00;;;;;;;;;3.50;3.00;;;;;23.35;48.66;100725.44;5016649;28;46855;-78
2022/08/22 10:00:28;;;;;;;;;4.00;4.00;;;;;23.39;48.56;100724.03;5029244;28;46305;-79
2022/08/22 10:03:05;;;;;;;;;3.00;2.75;;;;;23.41;47.86;100722.00;5028880;28;45761;-77
2022/08/22 10:05:44;;;;;;;;;3.50;3.00;;;;;23.42;48.08;100723.66;5012649;28;45845;-79
2022/08/22 10:08:34;;;;;;;;;2.00;2.00;;;;;23.42;48.24;100717.47;5029137;28;45723;-80
2022/08/22 10:11:11;;;;;;;;;4.50;2.00;;;;;23.46;47.79;100734.00;5012169;28;46159;-81
2022/08/22 10:13:54;;;;;;;;;2.00;2.00;;;;;23.51;48.04;100732.41;5028715;28;45703;-79
2022/08/22 10:16:24;;;;;;;;;2.00;2.00;;;;;23.54;48.15;100729.34;5029387;28;46571;-80
2022/08/22 10:19:16;;;;;;;;;3.00;3.00;;;;;23.59;47.47;100734.16;5012005;28;47480;-80
2022/08/22 10:22:19;;;;;;;;;3.00;3.00;;;;;23.63;47.44;100727.41;5028569;28;47205;-79
2022/08/22 10:24:53;;;;;;;;;2.25;2.25;;;;;23.68;48.06;100724.97;5028965;28;45798;-80
2022/08/22 10:27:31;;;;;;;;;2.75;2.50;;;;;23.71;47.73;100730.75;5024567;28;46198;-80
2022/08/22 10:30:09;;;;;;;;;2.00;2.00;;;;;23.80;47.96;100728.81;5031685;28;46281;-78
2022/08/22 10:33:02;;;;;;;;;2.25;2.00;;;;;23.87;47.41;100734.19;5064573;28;45959;-80
2022/08/22 10:35:29;;;;;;;;;2.75;2.00;;;;;23.93;47.48;100720.88;5061191;28;45731;-81
2022/08/22 10:37:59;;;;;;;;;3.00;2.75;;;;;23.99;47.75;100720.09;5068378;28;45806;-79
2022/08/22 10:40:38;;;;;;;;;3.00;2.00;;;;;24.07;47.21;100721.81;5071537;28;47020;-80
2022/08/22 10:43:11;;;;;;;;;2.00;2.00;;;;;24.11;46.64;100721.25;5050098;28;47103;-81
2022/08/22 10:45:42;;;;;;;;;5.50;3.00;;;;;24.15;47.21;100727.84;5046985;28;45714;-80
2022/08/22 10:48:07;;;;;;;;;2.00;2.00;;;;;24.18;46.66;100719.44;5071499;27;45856;-79
2022/08/22 10:51:07;;;;;;;;;2.50;2.50;;;;;24.20;46.72;100722.78;5067589;28;47985;-80
2022/08/22 10:54:11;;;;;;;;;2.00;2.00;;;;;24.24;47.25;100726.72;5011793;28;46010;-78
2022/08/22 10:56:42;;;;;;;;;2.75;2.00;;;;;24.30;47.42;100722.41;5012380;28;45578;-79
2022/08/22 10:59:31;;;;;;;;;2.00;1.25;;;;;24.36;46.81;100716.28;5012551;28;45782;-81
2022/08/22 11:02:08;;;;;;;;;0.50;0.50;;;;;24.41;47.25;100718.38;5011293;28;47432;-78
2022/08/22 11:04:42;;;;;;;;;2.00;2.00;;;;;24.47;47.42;100713.06;5011808;28;46678;-81
2022/08/22 11:07:44;;;;;;;;;3.00;2.50;;;;;24.53;46.75;100717.63;5011861;28;46264;-78
2022/08/22 11:10:32;;;;;;;;;5.00;2.00;;;;;24.59;47.05;100711.50;5012064;28;45977;-80
2022/08/22 11:13:18;;;;;;;;;2.00;2.00;;;;;24.68;46.83;100722.88;5011513;28;45801;-80
2022/08/22 11:16:04;;;;;;;;;2.00;2.00;;;;;24.76;46.84;100729.94;5028538;28;47275;-80
2022/08/22 11:18:38;;;;;;;;;2.00;2.00;;;;;24.87;46.85;100732.88;5010918;28;45836;-81
2022/08/22 11:21:09;;;;;;;;;1.25;1.25;;;;;24.93;46.73;100721.41;5012166;28;46118;-79
2022/08/22 11:24:05;;;;;;;;;3.00;2.25;;;;;24.99;46.60;100717.09;5011517;28;45780;-79
2022/08/22 11:26:48;;;;;;;;;1.00;1.00;;;;;25.01;46.35;100707.81;5011018;28;46793;-80
2022/08/22 11:29:16;;;;;;;;;1.25;1.00;;;;;25.05;46.21;100706.38;5011847;28;45746;-80
2022/08/22 11:32:06;;;;;;;;;2.00;2.00;;;;;25.13;46.53;100710.75;5073409;28;45722;-80
2022/08/22 11:34:53;;;;;;;;;1.00;1.00;;;;;25.23;46.63;100702.31;5068195;28;45639;-79
2022/08/22 11:37:44;;;;;;;;;3.00;2.00;;;;;25.33;45.99;100710.78;5065816;28;46485;-81
2022/08/22 11:40:31;;;;;;;;;2.00;2.00;;;;;25.39;45.89;100705.44;5074189;28;45634;-76
2022/08/22 11:43:27;;;;;;;;;2.00;1.25;;;;;25.42;46.03;100704.22;5055301;28;45650;-79
2022/08/22 11:45:58;;;;;;;;;3.00;2.50;;;;;25.45;45.70;100704.63;5073676;28;46603;-79
2022/08/22 11:48:57;;;;;;;;;2.00;2.00;;;;;25.52;45.87;100704.66;5074175;27;45921;-78
2022/08/22 11:52:00;;;;;;;;;2.50;2.50;;;;;25.54;45.61;100707.13;5069279;28;45711;-79
2022/08/22 11:54:53;;;;;;;;;2.25;2.25;;;;;25.55;45.25;100706.91;5073292;28;45633;-78
2022/08/22 11:57:36;;;;;;;;;2.00;2.00;;;;;25.55;45.17;100696.19;5055505;28;46745;-81
2022/08/22 12:00:11;;;;;;;;;3.00;2.00;;;;;25.61;45.37;100697.25;5055604;28;46384;-77
2022/08/22 12:02:43;;;;;;;;;2.00;2.00;;;;;25.65;45.52;100701.16;5072454;28;45754;-80
2022/08/22 12:05:41;;;;;;;;;2.00;1.25;;;;;25.70;45.38;100704.06;5073965;28;46070;-78
2022/08/22 12:08:22;;;;;;;;;2.00;2.00;;;;;25.78;45.39;100703.88;5070390;28;47103;-78
2022/08/22 12:11:10;;;;;;;;;3.50;2.25;;;;;25.85;45.07;100710.09;5060789;28;45892;-77
2022/08/22 12:14:04;;;;;;;;;3.00;2.00;;;;;25.94;45.24;100694.59;5072920;28;45762;-77
2022/08/22 12:16:35;;;;;;;;;2.25;1.50;;;;;26.01;45.12;100696.25;5010595;28;45869;-80
2022/08/22 12:19:10;;;;;;;;;3.50;3.00;;;;;26.05;45.08;100685.91;5010847;28;46922;-76
2022/08/22 12:21:54;;;;;;;;;3.00;2.00;;;;;26.11;44.94;100691.28;5010357;28;46326;-77
2022/08/22 12:24:41;;;;;;;;;2.00;1.50;;;;;26.17;44.88;100687.75;5010882;28;45797;-77
2022/08/22 12:27:24;;;;;;;;;1.00;1.00;;;;;26.26;44.56;100683.84;4993559;28;45683;-80
2022/08/22 12:30:14;;;;;;;;;2.00;2.00;;;;;26.35;44.83;100681.75;5010348;28;46616;-80
2022/08/22 12:33:08;;;;;;;;;1.50;1.25;;;;;26.42;44.90;100687.94;5011062;28;45909;-77
2022/08/22 12:35:42;;;;;;;;;2.25;2.00;;;;;26.49;44.99;100683.38;5010599;28;45774;-78